Skip Navigation Links
NOAA logo - Click to go to the NOAA homepage
NOAA's National Weather Service
Alaska Aviation Weather Unit
  NWS logo - Click to go to the NWS homepage
Left Navbar Graphic     03 AKDT = 11 GMT

   
NOAA is celebrating 200 years of science, service, and stewardship. Visit the NOAA 200th celebration Web site to learn more.
USA.gov is the U.S. Government's official Web portal to all Federal, state and local government Web resources and services.
Facebook
NWS on Facebook

AAWU Home :: Display TAF Add Bookmark
TAF PABI 290600Z 2906/3012 27006KT 9999 SCT070 BKN100 QNH2943INS
      BECMG 2920/2921 21003KT 9999 VCSH BKN040 OVC070 610405
      QNH2946INS TXM03/3001Z TNM13/2916Z=

METAR PABI 290553Z AUTO 27008KT 10SM CLR M06/M12 A2950= METAR PABI 290653Z AUTO 26005KT 10SM CLR M07/M13 A2951= METAR PABI 290753Z AUTO 26005KT 10SM CLR M07/M13 A2951= METAR PABI 290853Z AUTO 24004KT 10SM CLR M08/M13 A2952= METAR PABI 290953Z AUTO 29004KT 10SM CLR M09/M13 A2953= METAR PABI 291053Z AUTO 27006KT 10SM CLR M10/M14 A2954 RMK AO2 SLP035 T11001139 TSNO=
 Alaska TAF Map

NOAA's National Weather Service
Alaska Aviation Weather Unit
6930 Sand Lake Road
Anchorage, AK 99502-1845
Disclaimer
Credits
Glossary
Privacy Policy
About Us
Career Opportunities
Contact AAWU Internet Services Site last modified: April, 17th 2012